createdAt,value
2023-01-15T00:00:15.350Z,8.60
2023-01-15T00:05:23.751Z,8.80
2023-01-15T00:10:32.001Z,8.70
2023-01-15T00:15:40.505Z,8.30
2023-01-15T00:20:49.095Z,8.00
2023-01-15T00:26:17.259Z,8.90
2023-01-15T00:31:25.511Z,9.30
2023-01-15T00:36:34.100Z,9.40
2023-01-15T00:41:42.694Z,9.10
2023-01-15T00:46:50.692Z,9.70
2023-01-15T00:51:59.128Z,9.50
2023-01-15T00:57:07.859Z,9.00
2023-01-15T01:02:16.414Z,9.20
2023-01-15T01:07:25.213Z,8.50
2023-01-15T01:12:33.442Z,9.60
2023-01-15T01:17:42.799Z,9.40
2023-01-15T01:22:51.993Z,9.20
2023-01-15T01:28:00.455Z,8.20
2023-01-15T01:33:09.075Z,8.50
2023-01-15T01:38:17.611Z,8.60
2023-01-15T01:43:28.009Z,8.40
2023-01-15T01:48:37.565Z,8.20
2023-01-15T01:53:46.062Z,8.60
2023-01-15T01:58:57.140Z,9.00
2023-01-15T02:04:08.471Z,8.40
2023-01-15T02:09:16.842Z,8.70
2023-01-15T02:14:29.081Z,8.00
2023-01-15T02:25:08.900Z,6.90
2023-01-15T02:30:26.409Z,6.60
2023-01-15T02:35:42.503Z,6.90
2023-01-15T02:40:53.836Z,7.90
2023-01-15T02:46:05.398Z,7.80
2023-01-15T02:51:18.185Z,7.70
2023-01-15T02:56:32.316Z,6.40
2023-01-15T03:01:45.200Z,6.80
2023-01-15T03:06:58.922Z,7.00
2023-01-15T03:12:15.189Z,6.50
2023-01-15T03:17:30.148Z,6.60
2023-01-15T03:22:41.638Z,7.20
2023-01-15T03:27:55.593Z,7.40
2023-01-15T03:33:04.857Z,7.30
2023-01-15T03:38:15.742Z,7.60
2023-01-15T03:43:48.406Z,7.80
2023-01-15T03:49:04.140Z,7.50
2023-01-15T03:54:19.644Z,8.10
2023-01-15T03:59:36.638Z,7.00
2023-01-15T04:04:47.921Z,7.00
2023-01-15T04:09:56.660Z,7.60
2023-01-15T04:15:05.423Z,6.80
2023-01-15T04:20:15.500Z,7.50
2023-01-15T04:25:25.821Z,7.40
2023-01-15T04:30:34.729Z,7.50
2023-01-15T04:35:42.968Z,6.60
2023-01-15T04:41:09.896Z,7.70
2023-01-15T04:46:18.168Z,8.00
2023-01-15T04:51:26.442Z,6.30
2023-01-15T04:56:39.054Z,7.80
2023-01-15T05:02:01.965Z,6.80
2023-01-15T05:07:13.074Z,6.70
2023-01-15T05:12:21.567Z,6.20
2023-01-15T05:17:30.782Z,6.50
2023-01-15T05:22:39.120Z,6.30
2023-01-15T05:27:47.570Z,6.30
2023-01-15T05:32:56.107Z,6.00
2023-01-15T05:38:07.532Z,6.40
2023-01-15T05:43:15.900Z,6.10
2023-01-15T05:48:25.000Z,5.80
2023-01-15T05:53:35.301Z,5.60
2023-01-15T05:58:43.557Z,5.80
2023-01-15T06:03:54.002Z,5.90
2023-01-15T06:09:02.428Z,5.80
2023-01-15T06:14:12.309Z,4.90
2023-01-15T06:19:20.701Z,4.90
2023-01-15T06:24:28.897Z,5.00
2023-01-15T06:29:37.245Z,4.90
2023-01-15T06:34:45.515Z,5.10
2023-01-15T06:39:53.804Z,4.90
2023-01-15T06:45:20.584Z,5.30
2023-01-15T06:50:29.201Z,5.20
2023-01-15T06:55:37.388Z,5.30
2023-01-15T07:00:54.491Z,5.60
2023-01-15T07:06:07.043Z,5.30
2023-01-15T07:11:15.987Z,5.50
2023-01-15T07:16:31.837Z,5.20
2023-01-15T07:21:40.115Z,5.10
2023-01-15T07:26:48.664Z,5.30
2023-01-15T07:31:58.027Z,5.40
2023-01-15T07:37:06.978Z,4.80
2023-01-15T07:42:34.169Z,4.80
2023-01-15T07:48:01.381Z,4.40
2023-01-15T07:53:09.956Z,5.00
2023-01-15T07:58:18.147Z,5.80
2023-01-15T08:03:26.750Z,4.80
2023-01-15T08:08:35.163Z,5.10
2023-01-15T08:14:02.154Z,5.40
2023-01-15T08:19:10.696Z,5.80
2023-01-15T08:24:19.273Z,5.00
2023-01-15T08:29:27.575Z,4.90
2023-01-15T08:34:35.837Z,5.40
2023-01-15T08:39:44.803Z,4.80
2023-01-15T08:44:53.677Z,4.80
2023-01-15T08:50:01.920Z,5.00
2023-01-15T08:55:11.104Z,4.40
2023-01-15T09:00:22.294Z,4.90
2023-01-15T09:05:31.159Z,5.50
2023-01-15T09:10:39.644Z,5.00
2023-01-15T09:15:47.832Z,4.80
2023-01-15T09:20:55.443Z,4.70
2023-01-15T09:26:06.972Z,4.40
2023-01-15T09:31:15.607Z,5.00
2023-01-15T09:36:28.142Z,4.50
2023-01-15T09:42:09.414Z,5.20
2023-01-15T09:47:21.129Z,4.70
2023-01-15T09:52:46.204Z,4.90
2023-01-15T09:57:59.922Z,4.90
2023-01-15T10:03:14.326Z,4.20
2023-01-15T10:08:26.493Z,4.30
2023-01-15T10:13:43.391Z,4.00
2023-01-15T10:18:52.373Z,3.70
2023-01-15T10:24:10.461Z,3.70
2023-01-15T10:29:26.695Z,4.30
2023-01-15T10:35:03.820Z,3.80
2023-01-15T10:40:45.809Z,3.80
2023-01-15T10:45:58.214Z,3.60
2023-01-15T10:51:15.907Z,3.70
2023-01-15T10:56:34.211Z,3.60
2023-01-15T11:01:43.093Z,3.90
2023-01-15T11:06:51.529Z,4.10
2023-01-15T11:12:36.669Z,3.80
2023-01-15T11:18:06.620Z,4.30
2023-01-15T11:23:17.927Z,3.90
2023-01-15T11:28:40.590Z,4.40
2023-01-15T11:34:01.908Z,3.80
2023-01-15T11:39:22.946Z,3.70
2023-01-15T11:44:50.497Z,4.00
2023-01-15T11:50:19.215Z,4.00
2023-01-15T11:55:29.600Z,3.90
2023-01-15T12:00:45.617Z,4.00
2023-01-15T12:05:59.883Z,3.60
2023-01-15T12:11:26.852Z,4.10
2023-01-15T12:16:44.508Z,3.90
2023-01-15T12:22:26.996Z,4.60
2023-01-15T12:33:03.038Z,3.40
2023-01-15T12:38:21.226Z,3.90
2023-01-15T12:43:49.291Z,4.00
2023-01-15T12:49:07.193Z,3.20
2023-01-15T12:54:24.363Z,3.40
2023-01-15T12:59:38.248Z,3.80
2023-01-15T13:04:52.228Z,4.00
2023-01-15T13:10:08.542Z,3.90
2023-01-15T13:15:19.591Z,3.70
2023-01-15T13:20:37.739Z,4.20
2023-01-15T13:25:56.681Z,3.90
2023-01-15T13:31:15.938Z,5.30
2023-01-15T13:36:29.979Z,4.10
2023-01-15T13:41:57.708Z,4.60
2023-01-15T13:47:09.717Z,4.70
2023-01-15T13:52:28.032Z,4.70
2023-01-15T13:57:41.036Z,4.50
2023-01-15T14:02:56.473Z,4.70
2023-01-15T14:08:16.711Z,5.60
2023-01-15T14:13:43.069Z,4.60
2023-01-15T14:19:09.710Z,5.80
2023-01-15T14:24:43.642Z,5.50
2023-01-15T14:30:15.806Z,5.40
2023-01-15T14:35:26.197Z,6.00
2023-01-15T14:40:37.728Z,6.00
2023-01-15T14:45:50.500Z,6.90
2023-01-15T14:51:10.058Z,5.70
2023-01-15T14:56:26.098Z,6.90
2023-01-15T15:01:44.192Z,6.50
2023-01-15T15:06:56.667Z,6.70
2023-01-15T15:12:23.413Z,7.00
2023-01-15T15:17:39.296Z,2.80
2023-01-15T15:22:50.365Z,1.80
2023-01-15T15:28:08.871Z,1.00
2023-01-15T15:33:22.598Z,1.00
2023-01-15T15:38:31.251Z,0.80
2023-01-15T15:44:07.411Z,0.90
2023-01-15T15:49:16.332Z,0.70
2023-01-15T15:54:27.205Z,0.80
2023-01-15T15:59:42.283Z,0.60
2023-01-15T16:04:53.170Z,0.50
2023-01-15T16:10:05.473Z,0.50
2023-01-15T16:20:26.209Z,0.60
2023-01-15T16:25:39.466Z,0.50
2023-01-15T16:30:47.970Z,0.50
2023-01-15T16:36:05.131Z,0.50
2023-01-15T16:41:21.986Z,0.50
2023-01-15T16:46:33.729Z,0.50
2023-01-15T16:51:43.533Z,0.60
2023-01-15T16:56:57.799Z,0.50
2023-01-15T17:02:16.737Z,0.60
2023-01-15T17:07:29.858Z,0.60
2023-01-15T17:12:41.161Z,0.30
2023-01-15T17:17:50.663Z,1.10
2023-01-15T17:22:59.796Z,0.80
2023-01-15T17:28:13.145Z,0.50
2023-01-15T17:33:23.588Z,0.70
2023-01-15T17:38:32.006Z,0.40
2023-01-15T17:43:40.311Z,0.70
2023-01-15T17:48:48.992Z,0.50
2023-01-15T17:53:57.339Z,0.40
2023-01-15T17:59:29.450Z,0.90
2023-01-15T18:05:00.585Z,0.90
2023-01-15T18:10:12.344Z,0.80
2023-01-15T18:15:20.333Z,0.80
2023-01-15T18:20:28.888Z,1.50
2023-01-15T18:25:37.564Z,1.50
2023-01-15T18:30:46.182Z,2.10
2023-01-15T18:36:04.302Z,1.70
2023-01-15T18:41:36.495Z,2.10
2023-01-15T18:46:45.143Z,1.70
2023-01-15T18:52:09.320Z,2.00
2023-01-15T18:57:18.060Z,2.00
2023-01-15T19:02:27.476Z,1.70
2023-01-15T19:07:36.049Z,1.80
2023-01-15T19:12:45.507Z,1.30
2023-01-15T19:18:12.234Z,1.40
2023-01-15T19:23:21.836Z,1.50
2023-01-15T19:28:33.775Z,0.90
2023-01-15T19:33:42.248Z,1.30
2023-01-15T19:38:50.952Z,1.50
2023-01-15T19:44:16.852Z,1.60
2023-01-15T19:49:45.782Z,1.60
2023-01-15T19:54:58.517Z,1.70
2023-01-15T20:00:07.655Z,2.10
2023-01-15T20:05:17.097Z,2.00
2023-01-15T20:10:27.535Z,1.80
2023-01-15T20:15:38.088Z,1.80
2023-01-15T20:20:46.623Z,2.50
2023-01-15T20:25:55.435Z,2.40
2023-01-15T20:31:04.882Z,2.70
2023-01-15T20:36:13.943Z,3.10
2023-01-15T20:41:39.675Z,3.00
2023-01-15T20:46:48.151Z,3.30
2023-01-15T20:52:02.000Z,3.00
2023-01-15T20:57:11.161Z,3.00
2023-01-15T21:02:19.717Z,3.10
2023-01-15T21:07:29.168Z,3.80
2023-01-15T21:12:37.464Z,3.40
2023-01-15T21:17:46.261Z,3.20
2023-01-15T21:22:54.545Z,3.30
2023-01-15T21:28:03.156Z,3.90
2023-01-15T21:33:12.025Z,3.60
2023-01-15T21:38:20.347Z,3.30
2023-01-15T21:43:47.696Z,4.00
2023-01-15T21:48:56.162Z,3.20
2023-01-15T21:54:04.557Z,4.10
2023-01-15T21:59:16.296Z,3.50
2023-01-15T22:04:26.088Z,3.90
2023-01-15T22:09:34.736Z,3.50
2023-01-15T22:14:43.316Z,2.70
2023-01-15T22:19:52.348Z,3.50
2023-01-15T22:25:00.994Z,3.60
2023-01-15T22:30:12.453Z,3.60
2023-01-15T22:35:21.171Z,3.60
2023-01-15T22:40:29.508Z,3.50
2023-01-15T22:45:37.748Z,3.70
2023-01-15T22:50:45.979Z,2.90
2023-01-15T22:56:01.071Z,3.70
2023-01-15T23:01:10.245Z,3.60
2023-01-15T23:06:20.788Z,3.70
2023-01-15T23:11:29.892Z,3.50
2023-01-15T23:16:38.535Z,4.30
2023-01-15T23:21:47.296Z,3.50
2023-01-15T23:26:55.669Z,3.60
2023-01-15T23:32:03.926Z,3.20
2023-01-15T23:37:12.357Z,3.30
2023-01-15T23:42:39.976Z,2.50
2023-01-15T23:47:48.834Z,3.40
2023-01-15T23:52:57.357Z,3.80
2023-01-15T23:58:05.873Z,3.40
